createdAt,value
2023-03-27T04:50:44.874Z,27.04
2023-03-27T07:37:40.871Z,27.48
2023-03-27T07:41:40.789Z,27.37
2023-03-27T07:45:41.141Z,27.25
2023-03-27T07:49:40.749Z,27.21
2023-03-27T07:53:41.090Z,27.25
2023-03-27T07:57:57.237Z,27.31
2023-03-27T08:01:41.749Z,27.37
2023-03-27T08:05:42.568Z,27.45
2023-03-27T08:09:40.984Z,27.48
2023-03-27T08:13:41.082Z,27.52
2023-03-27T08:17:41.329Z,27.52
2023-03-27T08:21:41.314Z,27.45
2023-03-27T08:25:41.609Z,27.20
2023-03-27T08:29:42.107Z,27.07
2023-03-27T08:33:41.663Z,26.97
2023-03-27T08:37:41.946Z,26.67
2023-03-27T08:41:42.586Z,26.62
2023-03-27T08:45:42.103Z,26.53
2023-03-27T08:49:42.097Z,26.62
2023-03-27T08:53:43.701Z,26.64
2023-03-27T08:57:42.135Z,26.67
2023-03-27T09:01:41.883Z,26.57
2023-03-27T09:05:41.872Z,26.57
2023-03-27T09:09:54.306Z,26.64
2023-03-27T09:13:42.031Z,26.79
2023-03-27T09:17:42.048Z,26.95
2023-03-27T09:21:41.929Z,27.11
2023-03-27T09:25:41.911Z,27.20
2023-03-27T09:29:42.148Z,27.30
2023-03-27T09:33:42.636Z,27.40
2023-03-27T09:37:42.241Z,26.83
2023-03-27T09:41:41.756Z,26.62
2023-03-27T09:45:41.748Z,26.74
2023-03-27T09:49:42.174Z,26.98
2023-03-27T09:53:42.668Z,27.24
2023-03-27T09:57:41.684Z,27.54
2023-03-27T10:01:41.897Z,27.81
2023-03-27T10:05:41.784Z,27.91
2023-03-27T10:09:41.748Z,28.03
2023-03-27T10:13:41.852Z,28.06
2023-03-27T10:17:42.185Z,28.10
2023-03-27T10:21:42.197Z,28.16
2023-03-27T10:25:43.190Z,28.16
2023-03-27T10:29:42.671Z,28.19
2023-03-27T10:33:42.731Z,27.95
2023-03-27T10:37:50.101Z,27.61
2023-03-27T10:41:43.698Z,27.38
2023-03-27T10:45:42.732Z,27.31
2023-03-27T10:49:42.742Z,27.37
2023-03-27T10:53:42.677Z,27.44
2023-03-27T10:57:42.591Z,27.54
2023-03-27T11:01:42.770Z,27.59
2023-03-27T11:05:42.579Z,27.62
2023-03-27T11:09:42.523Z,27.65
2023-03-27T11:13:42.418Z,27.68
2023-03-27T11:17:42.678Z,27.71
2023-03-27T11:21:42.700Z,27.76
2023-03-27T11:25:42.325Z,27.81
2023-03-27T11:29:42.284Z,27.85
2023-03-27T11:33:42.269Z,27.91
2023-03-27T11:37:42.640Z,27.88
2023-03-27T11:41:42.219Z,27.93
2023-03-27T11:45:42.201Z,27.91
2023-03-27T11:49:42.122Z,27.91
2023-03-27T11:53:42.147Z,27.95
2023-03-27T11:57:42.211Z,28.03
2023-03-27T12:01:42.172Z,28.07
2023-03-27T12:05:42.216Z,28.05
2023-03-27T12:09:42.148Z,28.02
2023-03-27T12:13:42.835Z,28.00
2023-03-27T12:17:42.255Z,27.96
2023-03-27T12:21:42.322Z,27.89
2023-03-27T12:25:42.432Z,27.85
2023-03-27T12:29:42.556Z,27.84
2023-03-27T12:33:42.612Z,27.84
2023-03-27T12:37:42.777Z,27.85
2023-03-27T12:41:42.796Z,27.86
2023-03-27T12:45:53.046Z,27.84
2023-03-27T12:49:48.159Z,27.85
2023-03-27T12:53:42.885Z,27.85
2023-03-27T12:57:43.053Z,27.84
2023-03-27T13:01:51.597Z,27.86
2023-03-27T13:05:43.784Z,27.89
2023-03-27T13:09:42.707Z,27.91
2023-03-27T13:13:42.680Z,27.96
2023-03-27T13:17:42.632Z,28.03
2023-03-27T13:21:42.594Z,28.05
2023-03-27T13:25:42.558Z,28.07
2023-03-27T13:29:42.496Z,28.09
2023-03-27T13:33:42.612Z,28.19
2023-03-27T13:37:42.758Z,28.19
2023-03-27T13:41:43.213Z,28.13
2023-03-27T13:45:43.233Z,28.12
2023-03-27T13:49:42.770Z,28.13
2023-03-27T13:53:42.781Z,28.17
2023-03-27T13:57:42.982Z,28.33
2023-03-27T14:01:43.261Z,28.48
2023-03-27T14:05:43.380Z,28.58
2023-03-27T14:09:43.469Z,28.64
2023-03-27T14:13:43.599Z,28.58
2023-03-27T14:17:43.793Z,28.53
2023-03-27T14:21:43.978Z,28.40
2023-03-27T14:25:43.973Z,28.36
2023-03-27T14:29:43.896Z,28.30
2023-03-27T14:33:43.857Z,28.28
2023-03-27T14:37:43.857Z,28.27
2023-03-27T14:41:43.856Z,28.26
2023-03-27T14:45:43.847Z,28.37
2023-03-27T14:49:43.729Z,28.46
2023-03-27T14:53:43.699Z,28.47
2023-03-27T14:57:43.674Z,28.61
2023-03-27T15:01:43.657Z,28.61
2023-03-27T15:05:43.569Z,28.58
2023-03-27T15:09:43.610Z,28.57
2023-03-27T15:13:43.814Z,28.58
2023-03-27T15:17:44.003Z,28.60
2023-03-27T15:21:44.098Z,28.64
2023-03-27T15:25:44.284Z,28.57
2023-03-27T15:29:44.442Z,28.48
2023-03-27T15:33:44.467Z,28.43
2023-03-27T15:37:44.433Z,28.47
2023-03-27T15:41:44.417Z,28.54
2023-03-27T15:45:44.406Z,28.57
2023-03-27T15:49:44.308Z,28.54
2023-03-27T15:53:44.284Z,28.51
2023-03-27T15:57:44.254Z,28.43
2023-03-27T16:01:44.270Z,28.37
2023-03-27T16:05:44.171Z,28.30
2023-03-27T16:09:44.181Z,28.26
2023-03-27T16:13:44.144Z,28.20
2023-03-27T16:17:44.166Z,28.17
2023-03-27T16:21:44.067Z,28.13
2023-03-27T16:25:44.009Z,28.07
2023-03-27T16:29:44.046Z,28.05
2023-03-27T16:33:43.964Z,28.00
2023-03-27T16:37:43.963Z,27.96
2023-03-27T16:41:44.006Z,27.96
2023-03-27T16:45:44.037Z,27.96
2023-03-27T16:49:44.074Z,27.93
2023-03-27T16:53:44.174Z,27.92
2023-03-27T16:57:44.195Z,27.91
2023-03-27T17:01:44.271Z,27.89
2023-03-27T17:05:44.363Z,27.86
2023-03-27T17:09:44.420Z,27.88
2023-03-27T17:13:44.532Z,27.85
2023-03-27T17:17:44.588Z,27.81
2023-03-27T17:21:44.718Z,27.79
2023-03-27T17:25:44.822Z,27.78
2023-03-27T17:29:44.941Z,27.73
2023-03-27T17:33:45.048Z,27.73
2023-03-27T17:37:45.217Z,27.72
2023-03-27T17:41:45.256Z,27.69
2023-03-27T17:45:45.466Z,27.65
2023-03-27T17:49:45.565Z,27.64
2023-03-27T17:53:45.728Z,27.65
2023-03-27T17:57:49.097Z,27.62
2023-03-27T18:01:46.812Z,27.61
2023-03-27T18:05:45.717Z,27.59
2023-03-27T18:09:45.722Z,27.58
2023-03-27T18:13:45.825Z,27.56
2023-03-27T18:17:46.065Z,27.54
2023-03-27T18:21:46.218Z,27.52
2023-03-27T18:25:46.375Z,27.49
2023-03-27T18:29:46.600Z,27.46
2023-03-27T18:33:46.724Z,27.45
2023-03-27T18:37:46.921Z,27.46
2023-03-27T18:41:46.916Z,27.44
2023-03-27T18:45:46.866Z,27.40
2023-03-27T18:49:46.801Z,27.38
2023-03-27T18:53:46.781Z,27.35
2023-03-27T18:57:46.757Z,27.32
2023-03-27T19:01:46.796Z,27.31
2023-03-27T19:05:46.630Z,27.27
2023-03-27T19:09:46.615Z,27.25
2023-03-27T19:13:46.589Z,27.24
2023-03-27T19:17:46.726Z,27.24
2023-03-27T19:21:46.597Z,27.23
2023-03-27T19:25:46.528Z,27.24
2023-03-27T19:29:46.493Z,27.25
2023-03-27T19:33:46.436Z,27.24
2023-03-27T19:37:46.394Z,27.23
2023-03-27T19:41:46.342Z,27.23
2023-03-27T19:45:46.360Z,27.23
2023-03-27T19:49:46.333Z,27.20
2023-03-27T19:53:46.366Z,27.20
2023-03-27T19:57:46.233Z,27.18
2023-03-27T20:01:46.216Z,27.18
2023-03-27T20:05:46.333Z,27.18
2023-03-27T20:09:46.159Z,27.17
2023-03-27T20:13:56.113Z,27.15
2023-03-27T20:17:47.446Z,27.14
2023-03-27T20:21:46.015Z,27.15
2023-03-27T20:25:46.032Z,27.11
2023-03-27T20:29:45.939Z,27.14
2023-03-27T20:33:45.909Z,27.14
2023-03-27T20:37:45.887Z,27.10
2023-03-27T20:41:45.855Z,27.10
2023-03-27T20:45:45.898Z,27.08
2023-03-27T20:49:45.798Z,27.10
2023-03-27T20:53:45.784Z,27.08
2023-03-27T20:57:45.723Z,27.07
2023-03-27T21:01:45.743Z,27.05
2023-03-27T21:05:45.660Z,27.05
2023-03-27T21:09:45.606Z,27.04
2023-03-27T21:13:45.633Z,27.03
2023-03-27T21:17:45.576Z,27.01
2023-03-27T21:21:45.638Z,27.01
2023-03-27T21:25:45.496Z,27.00
2023-03-27T21:29:45.409Z,26.98
2023-03-27T21:33:45.452Z,26.97
2023-03-27T21:37:45.586Z,26.98
2023-03-27T21:41:45.432Z,26.95
2023-03-27T21:45:45.464Z,26.95
2023-03-27T21:49:45.357Z,26.94
2023-03-27T21:53:45.317Z,26.93
2023-03-27T21:57:45.305Z,26.94
2023-03-27T22:01:45.290Z,26.94
2023-03-27T22:05:54.280Z,26.91
2023-03-27T22:09:46.195Z,26.91
2023-03-27T22:13:45.141Z,26.90
2023-03-27T22:17:45.181Z,26.87
2023-03-27T22:21:45.049Z,26.89
2023-03-27T22:25:45.015Z,26.87
2023-03-27T22:29:45.444Z,26.84
2023-03-27T22:33:45.182Z,26.87
2023-03-27T22:37:45.306Z,26.86
2023-03-27T22:41:45.394Z,26.87
2023-03-27T22:45:45.476Z,26.83
2023-03-27T22:49:45.588Z,26.83
2023-03-27T22:53:45.713Z,26.81
2023-03-27T22:57:45.815Z,26.81
2023-03-27T23:01:45.962Z,26.83
2023-03-27T23:05:46.011Z,26.81
2023-03-27T23:09:46.131Z,26.80
2023-03-27T23:13:46.220Z,26.80
2023-03-27T23:17:46.446Z,26.77
2023-03-27T23:21:46.488Z,26.77
2023-03-27T23:25:46.668Z,26.80
2023-03-27T23:29:46.784Z,26.76
2023-03-27T23:33:46.919Z,26.77
2023-03-27T23:37:47.092Z,26.74
2023-03-27T23:41:47.237Z,26.73
2023-03-27T23:45:47.388Z,26.76
2023-03-27T23:49:47.482Z,26.74
2023-03-27T23:53:47.664Z,26.72
2023-03-27T23:57:47.813Z,26.70
